Time;durP1;ratioP1;P1;durP2;ratioP2;P2;SDS_P1;SDS_P2;PMS_P1;PMS_P2;Temp;Humidity;BMP_temperature;BMP_pressure;BME280_temperature;BME280_humidity;BME280_pressure;Samples;Min_cycle;Max_cycle;Signal;HPM_P1;HPM_P2
2022/01/11 00:01:21;;;;;;;22.75;12.38;;;;;;;;;;4996847;28;20176;-49
2022/01/11 00:03:47;;;;;;;28.92;11.50;;;;;;;;;;4995740;28;20204;-49
2022/01/11 00:09:07;;;;;;;20.27;11.90;;;;;;;;;;4998521;28;20216;-48
2022/01/11 00:11:33;;;;;;;20.27;12.48;;;;;;;;;;4999795;28;20171;-48
2022/01/11 00:13:59;;;;;;;24.08;11.13;;;;;;;;;;4999121;28;20639;-50
2022/01/11 00:16:25;;;;;;;30.02;13.68;;;;;;;;;;4999894;28;20196;-49
2022/01/11 00:18:51;;;;;;;19.20;11.83;;;;;;;;;;5000003;28;20652;-50
2022/01/11 00:21:17;;;;;;;18.93;11.70;;;;;;;;;;4999655;28;20810;-50
2022/01/11 00:26:09;;;;;;;25.13;12.90;;;;;;;;;;4999739;28;20173;-49
2022/01/11 00:28:35;;;;;;;30.20;14.15;;;;;;;;;;4999698;28;20400;-48
2022/01/11 00:31:05;;;;;;;25.80;13.77;;;;;;;;;;4999704;28;20595;-48
2022/01/11 00:33:42;;;;;;;21.88;10.77;;;;;;;;;;4999328;28;20408;-48
2022/01/11 00:36:10;;;;;;;24.35;13.27;;;;;;;;;;4999346;28;20219;-49
2022/01/11 00:38:38;;;;;;;22.13;11.43;;;;;;;;;;4999552;28;20582;-48
2022/01/11 00:41:06;;;;;;;30.08;13.32;;;;;;;;;;4999083;28;20180;-48
2022/01/11 00:43:32;;;;;;;26.27;12.50;;;;;;;;;;4999269;28;20232;-48
2022/01/11 00:45:58;;;;;;;27.05;15.45;;;;;;;;;;4999512;28;20180;-48
2022/01/11 00:48:24;;;;;;;22.63;12.52;;;;;;;;;;4999252;28;20170;-49
2022/01/11 00:50:51;;;;;;;26.42;14.75;;;;;;;;;;4999916;28;20228;-48
2022/01/11 00:53:18;;;;;;;27.23;13.10;;;;;;;;;;4999289;28;20240;-49
2022/01/11 00:55:45;;;;;;;23.15;12.05;;;;;;;;;;4999082;28;20189;-49
2022/01/11 00:58:11;;;;;;;19.65;11.07;;;;;;;;;;4999067;28;20172;-48
2022/01/11 01:00:38;;;;;;;25.38;12.65;;;;;;;;;;4998948;28;20252;-48
2022/01/11 01:03:05;;;;;;;28.10;12.55;;;;;;;;;;4999214;28;20190;-49
2022/01/11 01:05:31;;;;;;;25.45;12.40;;;;;;;;;;4999245;28;20213;-48
2022/01/11 01:07:57;;;;;;;22.83;13.32;;;;;;;;;;4999279;28;20470;-48
2022/01/11 01:10:29;;;;;;;17.02;10.73;;;;;;;;;;4998984;28;20169;-49
2022/01/11 01:12:56;;;;;;;21.20;11.80;;;;;;;;;;4999010;28;20173;-48
2022/01/11 01:15:22;;;;;;;23.20;12.25;;;;;;;;;;4998828;28;20201;-48
2022/01/11 01:17:48;;;;;;;19.23;11.98;;;;;;;;;;4999034;28;20221;-50
2022/01/11 01:20:14;;;;;;;23.27;11.73;;;;;;;;;;4998206;28;20169;-48
2022/01/11 01:22:40;;;;;;;24.08;10.80;;;;;;;;;;4998801;28;20460;-48
2022/01/11 01:25:07;;;;;;;17.50;11.10;;;;;;;;;;4998292;28;20276;-48
2022/01/11 01:27:33;;;;;;;19.92;10.55;;;;;;;;;;4998221;28;20165;-49
2022/01/11 01:29:59;;;;;;;18.80;9.98;;;;;;;;;;4998671;28;20640;-50
2022/01/11 01:32:26;;;;;;;22.63;10.68;;;;;;;;;;4997928;28;20173;-48
2022/01/11 01:34:54;;;;;;;20.50;10.48;;;;;;;;;;4998557;28;20244;-48
2022/01/11 01:37:20;;;;;;;25.20;10.57;;;;;;;;;;4997894;28;20215;-48
2022/01/11 01:39:46;;;;;;;13.00;8.70;;;;;;;;;;4999020;28;20644;-48
2022/01/11 01:42:12;;;;;;;23.07;10.67;;;;;;;;;;4998695;28;20796;-49
2022/01/11 01:44:41;;;;;;;22.77;11.10;;;;;;;;;;4998680;28;20483;-48
2022/01/11 01:47:12;;;;;;;19.08;10.38;;;;;;;;;;4998602;28;20423;-48
2022/01/11 01:49:39;;;;;;;20.73;12.25;;;;;;;;;;4997955;28;20169;-47
2022/01/11 01:52:06;;;;;;;26.42;12.20;;;;;;;;;;4998589;28;20169;-48
2022/01/11 01:54:31;;;;;;;21.55;12.23;;;;;;;;;;4998194;28;20191;-49
2022/01/11 01:56:57;;;;;;;26.13;11.70;;;;;;;;;;4997876;28;20224;-48
2022/01/11 01:59:23;;;;;;;22.63;11.53;;;;;;;;;;4998574;28;20400;-48
2022/01/11 02:01:50;;;;;;;20.98;14.05;;;;;;;;;;4997915;28;20772;-48
2022/01/11 02:04:17;;;;;;;25.00;12.40;;;;;;;;;;4997262;28;20213;-49
2022/01/11 02:06:43;;;;;;;17.92;11.85;;;;;;;;;;4997493;28;20177;-49
2022/01/11 02:09:11;;;;;;;20.73;11.15;;;;;;;;;;4997382;28;20176;-48
2022/01/11 02:11:37;;;;;;;17.02;9.98;;;;;;;;;;4997700;28;20204;-49
2022/01/11 02:14:03;;;;;;;25.50;13.93;;;;;;;;;;4997768;28;20771;-49
2022/01/11 02:16:29;;;;;;;18.77;12.53;;;;;;;;;;4997966;28;20192;-50
2022/01/11 02:18:55;;;;;;;22.70;11.67;;;;;;;;;;4998038;28;20976;-48
2022/01/11 02:21:22;;;;;;;24.27;12.18;;;;;;;;;;4997789;28;20405;-49
2022/01/11 02:23:50;;;;;;;19.58;10.63;;;;;;;;;;4997567;28;20256;-48
2022/01/11 02:26:16;;;;;;;17.58;10.85;;;;;;;;;;4998142;28;20165;-48
2022/01/11 02:28:42;;;;;;;18.98;10.93;;;;;;;;;;4998200;28;20183;-48
2022/01/11 02:31:12;;;;;;;21.33;10.57;;;;;;;;;;4998346;28;20224;-49
2022/01/11 02:33:44;;;;;;;19.17;10.68;;;;;;;;;;4997759;28;20165;-49
2022/01/11 02:36:11;;;;;;;23.00;10.07;;;;;;;;;;4998241;28;20165;-48
2022/01/11 02:38:37;;;;;;;14.60;9.80;;;;;;;;;;4997759;28;20636;-48
2022/01/11 02:41:04;;;;;;;16.53;8.93;;;;;;;;;;4997578;28;20173;-48
2022/01/11 02:43:30;;;;;;;15.30;9.75;;;;;;;;;;4997122;28;20471;-48
2022/01/11 02:45:58;;;;;;;16.38;8.43;;;;;;;;;;4997509;28;20540;-49
2022/01/11 02:48:24;;;;;;;23.05;11.85;;;;;;;;;;4997730;28;20160;-48
2022/01/11 02:50:50;;;;;;;23.10;13.07;;;;;;;;;;4997547;28;20172;-48
2022/01/11 02:53:17;;;;;;;23.20;13.35;;;;;;;;;;4997751;28;20188;-48
2022/01/11 02:55:44;;;;;;;30.80;13.77;;;;;;;;;;4998073;28;20181;-48
2022/01/11 02:58:11;;;;;;;25.00;17.20;;;;;;;;;;4997980;28;20176;-48
2022/01/11 03:00:38;;;;;;;33.28;18.95;;;;;;;;;;4998587;28;20180;-47
2022/01/11 03:03:13;;;;;;;35.22;17.85;;;;;;;;;;4997236;28;20731;-50
2022/01/11 03:05:46;;;;;;;28.08;15.10;;;;;;;;;;4997246;28;20683;-48
2022/01/11 03:08:13;;;;;;;30.40;17.65;;;;;;;;;;4997028;28;20181;-48
2022/01/11 03:10:39;;;;;;;24.92;14.88;;;;;;;;;;4997267;28;20165;-49
2022/01/11 03:13:07;;;;;;;23.98;12.38;;;;;;;;;;4996513;28;20181;-50
2022/01/11 03:15:34;;;;;;;25.50;11.90;;;;;;;;;;4996619;28;20189;-49
2022/01/11 03:18:00;;;;;;;19.77;12.70;;;;;;;;;;4996933;28;20248;-48
2022/01/11 03:20:26;;;;;;;24.77;13.52;;;;;;;;;;4996854;28;20173;-48
2022/01/11 03:22:52;;;;;;;23.02;11.27;;;;;;;;;;4997259;28;20195;-48
2022/01/11 03:25:18;;;;;;;18.17;11.77;;;;;;;;;;4996565;28;20277;-48
2022/01/11 03:27:45;;;;;;;22.85;11.73;;;;;;;;;;4997280;28;20455;-48
2022/01/11 03:30:11;;;;;;;19.30;8.95;;;;;;;;;;4996756;28;20527;-48
2022/01/11 03:32:38;;;;;;;18.00;9.23;;;;;;;;;;4996963;28;20633;-48
2022/01/11 03:35:05;;;;;;;13.30;7.78;;;;;;;;;;4996572;28;20188;-48
2022/01/11 03:37:31;;;;;;;15.93;9.25;;;;;;;;;;4996940;28;20170;-48
2022/01/11 03:39:57;;;;;;;19.35;10.38;;;;;;;;;;4996295;28;20180;-48
2022/01/11 03:42:23;;;;;;;22.80;10.40;;;;;;;;;;4996364;28;20392;-50
2022/01/11 03:44:50;;;;;;;17.00;10.43;;;;;;;;;;5000100;28;20467;-49
2022/01/11 03:47:16;;;;;;;13.85;10.02;;;;;;;;;;5000442;28;20171;-48
2022/01/11 03:49:42;;;;;;;36.03;16.40;;;;;;;;;;5000106;28;20197;-49
2022/01/11 03:52:09;;;;;;;23.00;14.60;;;;;;;;;;4996031;28;20208;-48
2022/01/11 03:55:02;;;;;;;21.38;10.50;;;;;;;;;;4995483;28;20193;-48
2022/01/11 03:57:29;;;;;;;24.63;12.05;;;;;;;;;;4996159;28;20576;-49
2022/01/11 03:59:55;;;;;;;22.38;13.18;;;;;;;;;;4995806;28;20542;-49
2022/01/11 04:02:21;;;;;;;23.88;13.88;;;;;;;;;;4995867;28;20196;-49
2022/01/11 04:04:52;;;;;;;24.42;12.50;;;;;;;;;;4995477;28;20193;-49
2022/01/11 04:07:22;;;;;;;16.98;10.38;;;;;;;;;;4995644;28;20679;-49
2022/01/11 04:09:49;;;;;;;19.92;11.20;;;;;;;;;;4995526;28;20165;-49
2022/01/11 04:12:15;;;;;;;23.20;12.10;;;;;;;;;;4995728;28;20173;-49
2022/01/11 04:14:41;;;;;;;18.92;11.35;;;;;;;;;;4995132;28;20235;-48
2022/01/11 04:17:07;;;;;;;21.30;12.63;;;;;;;;;;4995659;28;20200;-49
2022/01/11 04:19:33;;;;;;;23.30;12.70;;;;;;;;;;4995510;28;20412;-49
2022/01/11 04:21:59;;;;;;;24.00;12.70;;;;;;;;;;4995343;28;20817;-48
2022/01/11 04:24:26;;;;;;;17.60;9.97;;;;;;;;;;4995005;28;20427;-48
2022/01/11 04:26:53;;;;;;;20.88;11.18;;;;;;;;;;4995375;28;20530;-49
2022/01/11 04:29:19;;;;;;;17.42;10.55;;;;;;;;;;4995300;28;20170;-49
2022/01/11 04:31:45;;;;;;;29.02;14.73;;;;;;;;;;4995292;28;20244;-49
2022/01/11 04:34:11;;;;;;;23.50;14.50;;;;;;;;;;4994793;28;20260;-48
2022/01/11 04:36:37;;;;;;;27.63;13.93;;;;;;;;;;4995251;28;20169;-49
2022/01/11 04:39:05;;;;;;;18.23;11.20;;;;;;;;;;4995081;28;20167;-49
2022/01/11 04:41:31;;;;;;;25.58;11.23;;;;;;;;;;4995143;28;20248;-48
2022/01/11 04:43:57;;;;;;;12.77;8.30;;;;;;;;;;4994695;28;20621;-49
2022/01/11 04:46:23;;;;;;;15.67;10.00;;;;;;;;;;4995026;28;20397;-49
2022/01/11 04:48:49;;;;;;;19.00;10.05;;;;;;;;;;4994959;28;20760;-49
2022/01/11 04:51:15;;;;;;;20.67;8.82;;;;;;;;;;4994960;28;20551;-49
2022/01/11 04:53:41;;;;;;;23.20;10.82;;;;;;;;;;4994417;28;20169;-48
2022/01/11 04:56:10;;;;;;;25.27;12.13;;;;;;;;;;4993812;28;20196;-49
2022/01/11 04:58:36;;;;;;;21.42;10.32;;;;;;;;;;4994887;28;20467;-48
2022/01/11 05:01:02;;;;;;;16.70;11.60;;;;;;;;;;4994715;28;20566;-48
2022/01/11 05:03:28;;;;;;;16.83;9.10;;;;;;;;;;4994424;28;20224;-48
2022/01/11 05:05:54;;;;;;;21.23;10.30;;;;;;;;;;4994387;28;20224;-48
2022/01/11 05:08:20;;;;;;;21.33;10.50;;;;;;;;;;4994579;28;20427;-48
2022/01/11 05:10:46;;;;;;;18.77;9.00;;;;;;;;;;4994556;28;20753;-48
2022/01/11 05:13:13;;;;;;;20.63;10.20;;;;;;;;;;4994575;28;20169;-48
2022/01/11 05:15:40;;;;;;;15.40;7.60;;;;;;;;;;4994121;28;20420;-49
2022/01/11 05:18:09;;;;;;;14.25;6.82;;;;;;;;;;4994346;28;20714;-49
2022/01/11 05:20:35;;;;;;;11.02;6.93;;;;;;;;;;4994397;28;20169;-48
2022/01/11 05:23:01;;;;;;;16.77;9.90;;;;;;;;;;4994399;28;20205;-48
2022/01/11 05:25:27;;;;;;;15.00;8.37;;;;;;;;;;4993974;28;20189;-49
2022/01/11 05:27:54;;;;;;;13.23;7.70;;;;;;;;;;4994271;28;20888;-49
2022/01/11 05:30:20;;;;;;;13.80;7.40;;;;;;;;;;4994623;28;20397;-49
2022/01/11 05:32:48;;;;;;;10.02;6.28;;;;;;;;;;4994605;28;20181;-48
2022/01/11 05:35:14;;;;;;;12.55;6.68;;;;;;;;;;4993715;28;20192;-48
2022/01/11 05:37:40;;;;;;;9.27;7.38;;;;;;;;;;4994183;28;20598;-49
2022/01/11 05:40:07;;;;;;;12.85;7.20;;;;;;;;;;4994002;28;20648;-48
2022/01/11 05:42:34;;;;;;;13.55;7.70;;;;;;;;;;4993954;28;20196;-48
2022/01/11 05:45:00;;;;;;;12.43;7.88;;;;;;;;;;4993462;28;20224;-49
2022/01/11 05:47:26;;;;;;;12.75;7.70;;;;;;;;;;4993840;28;20177;-48
2022/01/11 05:49:52;;;;;;;10.70;6.60;;;;;;;;;;4993774;28;20170;-48
2022/01/11 05:52:18;;;;;;;9.00;7.20;;;;;;;;;;4993775;28;20180;-48
2022/01/11 05:54:44;;;;;;;13.70;6.15;;;;;;;;;;4993372;28;20197;-48
2022/01/11 05:57:10;;;;;;;18.33;6.25;;;;;;;;;;4993769;28;20173;-49
2022/01/11 05:59:36;;;;;;;12.50;6.63;;;;;;;;;;4993631;28;20191;-48
2022/01/11 06:02:02;;;;;;;11.80;6.50;;;;;;;;;;4993411;28;20173;-49
2022/01/11 06:04:29;;;;;;;14.25;7.13;;;;;;;;;;4993267;28;20223;-49
2022/01/11 06:06:55;;;;;;;19.98;7.47;;;;;;;;;;4993000;28;20260;-48
2022/01/11 06:09:26;;;;;;;15.30;5.57;;;;;;;;;;4993476;28;20173;-48
2022/01/11 06:11:52;;;;;;;8.18;5.82;;;;;;;;;;4993379;28;20419;-49
2022/01/11 06:14:18;;;;;;;11.18;6.03;;;;;;;;;;4992833;28;20676;-49
2022/01/11 06:16:45;;;;;;;8.23;5.57;;;;;;;;;;4993198;28;20169;-49
2022/01/11 06:19:11;;;;;;;8.43;5.53;;;;;;;;;;4993428;28;20416;-48
2022/01/11 06:21:37;;;;;;;9.67;5.77;;;;;;;;;;4993111;28;20169;-49
2022/01/11 06:24:03;;;;;;;7.63;4.97;;;;;;;;;;4992844;28;20474;-49
2022/01/11 06:26:29;;;;;;;9.20;5.75;;;;;;;;;;4993084;28;20930;-49
2022/01/11 06:28:56;;;;;;;11.77;6.10;;;;;;;;;;4993013;28;20177;-49
2022/01/11 06:31:22;;;;;;;8.85;6.55;;;;;;;;;;4992881;28;20168;-49
2022/01/11 06:33:48;;;;;;;10.57;7.05;;;;;;;;;;4992578;28;20268;-49
2022/01/11 06:36:14;;;;;;;16.02;7.95;;;;;;;;;;4992519;28;20168;-49
2022/01/11 06:38:41;;;;;;;29.13;8.98;;;;;;;;;;4992978;28;20216;-48
2022/01/11 06:41:07;;;;;;;19.52;8.63;;;;;;;;;;4992807;28;20173;-48
2022/01/11 06:43:33;;;;;;;13.67;7.90;;;;;;;;;;4992465;28;20717;-48
2022/01/11 06:45:59;;;;;;;20.55;12.13;;;;;;;;;;4992778;28;20488;-49
2022/01/11 06:48:25;;;;;;;16.10;11.07;;;;;;;;;;4992748;28;20256;-48
2022/01/11 06:50:51;;;;;;;20.03;9.13;;;;;;;;;;4992687;28;20487;-49
2022/01/11 06:53:17;;;;;;;15.10;9.10;;;;;;;;;;4992721;28;20409;-48
2022/01/11 06:55:43;;;;;;;12.67;9.00;;;;;;;;;;4992444;28;20489;-49
2022/01/11 06:58:09;;;;;;;18.80;9.80;;;;;;;;;;4992279;28;20971;-49
2022/01/11 07:00:35;;;;;;;14.73;8.23;;;;;;;;;;4991957;28;20808;-49
2022/01/11 07:03:01;;;;;;;13.00;7.33;;;;;;;;;;4991805;28;20459;-49
2022/01/11 07:05:27;;;;;;;21.40;8.05;;;;;;;;;;4991211;28;20499;-49
2022/01/11 07:07:53;;;;;;;13.57;7.40;;;;;;;;;;4991569;28;20187;-48
2022/01/11 07:10:19;;;;;;;11.50;6.83;;;;;;;;;;4991937;28;20173;-49
2022/01/11 07:12:45;;;;;;;13.13;8.00;;;;;;;;;;4992134;28;20419;-48
2022/01/11 07:15:11;;;;;;;11.77;6.60;;;;;;;;;;4991260;28;20458;-48
2022/01/11 07:17:37;;;;;;;10.52;6.60;;;;;;;;;;4991065;28;20408;-49
2022/01/11 07:20:04;;;;;;;8.75;5.78;;;;;;;;;;4991455;28;20593;-50
2022/01/11 07:22:30;;;;;;;7.65;5.75;;;;;;;;;;4991612;28;20707;-49
2022/01/11 07:24:55;;;;;;;14.30;6.67;;;;;;;;;;4991339;28;20196;-48
2022/01/11 07:27:22;;;;;;;14.20;7.73;;;;;;;;;;4991767;28;20406;-49
2022/01/11 07:29:48;;;;;;;8.15;6.35;;;;;;;;;;4989790;28;20412;-50
2022/01/11 07:32:14;;;;;;;14.05;9.85;;;;;;;;;;4993109;28;20189;-49
2022/01/11 07:34:40;;;;;;;17.23;8.95;;;;;;;;;;4991314;28;20334;-49
2022/01/11 07:37:07;;;;;;;18.30;9.02;;;;;;;;;;4991420;28;20601;-49
2022/01/11 07:39:33;;;;;;;15.90;8.23;;;;;;;;;;4991703;28;20169;-49
2022/01/11 07:41:59;;;;;;;11.52;7.00;;;;;;;;;;4991351;28;20587;-48
2022/01/11 07:44:25;;;;;;;12.18;7.28;;;;;;;;;;4991178;28;20220;-49
2022/01/11 07:46:53;;;;;;;11.57;7.23;;;;;;;;;;4986002;28;20184;-49
2022/01/11 07:49:19;;;;;;;10.25;6.75;;;;;;;;;;4992183;28;20827;-49
2022/01/11 07:51:45;;;;;;;8.43;7.45;;;;;;;;;;4991224;28;20669;-49
2022/01/11 07:54:11;;;;;;;10.47;6.03;;;;;;;;;;4991046;28;20201;-49
2022/01/11 07:56:37;;;;;;;9.52;6.78;;;;;;;;;;4986126;28;20670;-49
2022/01/11 07:59:04;;;;;;;11.55;8.60;;;;;;;;;;4986202;28;20569;-49
2022/01/11 08:01:31;;;;;;;11.90;8.05;;;;;;;;;;4984195;28;20193;-49
2022/01/11 08:03:59;;;;;;;11.55;7.13;;;;;;;;;;4989468;28;20727;-48
2022/01/11 08:06:26;;;;;;;11.30;6.50;;;;;;;;;;4985713;28;20268;-48
2022/01/11 08:08:52;;;;;;;13.50;7.20;;;;;;;;;;4986844;28;20174;-48
2022/01/11 08:11:18;;;;;;;12.23;8.82;;;;;;;;;;4974769;28;20184;-49
2022/01/11 08:13:44;;;;;;;12.70;7.30;;;;;;;;;;4981097;28;20177;-49
2022/01/11 08:16:10;;;;;;;12.25;7.30;;;;;;;;;;4990655;28;20420;-49
2022/01/11 08:18:36;;;;;;;12.43;9.00;;;;;;;;;;4974803;28;20189;-49
2022/01/11 08:21:01;;;;;;;16.47;9.73;;;;;;;;;;4974661;28;20425;-49
2022/01/11 08:23:27;;;;;;;15.27;9.10;;;;;;;;;;4972081;28;20492;-49
2022/01/11 08:25:53;;;;;;;14.20;8.73;;;;;;;;;;4977172;28;20444;-48
2022/01/11 08:28:19;;;;;;;12.67;8.20;;;;;;;;;;4977589;28;20441;-48
2022/01/11 08:30:45;;;;;;;10.30;7.28;;;;;;;;;;4977864;28;20782;-49
2022/01/11 08:33:12;;;;;;;20.40;8.17;;;;;;;;;;4975636;28;20180;-49
2022/01/11 08:35:38;;;;;;;14.80;8.20;;;;;;;;;;4983140;28;21139;-48
2022/01/11 08:38:04;;;;;;;13.00;8.57;;;;;;;;;;4983395;28;20181;-49
2022/01/11 08:40:30;;;;;;;12.50;8.20;;;;;;;;;;4976629;28;20499;-48
2022/01/11 08:42:56;;;;;;;11.97;8.77;;;;;;;;;;4976270;28;20280;-49
2022/01/11 08:45:22;;;;;;;12.48;9.15;;;;;;;;;;4980654;28;20431;-49
2022/01/11 08:47:48;;;;;;;13.45;8.25;;;;;;;;;;4975279;28;20180;-49
2022/01/11 08:50:15;;;;;;;10.85;7.40;;;;;;;;;;4975380;28;20174;-49
2022/01/11 08:52:41;;;;;;;11.18;7.00;;;;;;;;;;4993314;28;20679;-49
2022/01/11 08:55:08;;;;;;;11.55;6.82;;;;;;;;;;4977863;28;20203;-49
2022/01/11 08:57:34;;;;;;;19.38;7.63;;;;;;;;;;4987968;28;20170;-50
2022/01/11 09:00:03;;;;;;;11.07;6.35;;;;;;;;;;4975089;28;20276;-50
2022/01/11 09:02:29;;;;;;;9.02;5.90;;;;;;;;;;4990847;28;20204;-50
2022/01/11 09:04:56;;;;;;;8.85;5.95;;;;;;;;;;4977113;28;20248;-50
2022/01/11 09:07:22;;;;;;;17.13;6.90;;;;;;;;;;4985381;28;20200;-50
2022/01/11 09:09:48;;;;;;;10.00;6.18;;;;;;;;;;4975182;28;20182;-50
2022/01/11 09:12:15;;;;;;;11.90;7.60;;;;;;;;;;4988703;28;20192;-51
2022/01/11 09:14:42;;;;;;;13.30;7.63;;;;;;;;;;4994302;28;20440;-50
2022/01/11 09:17:08;;;;;;;8.90;6.20;;;;;;;;;;4992658;28;20186;-51
2022/01/11 09:19:34;;;;;;;8.77;6.27;;;;;;;;;;4980670;28;20931;-51
2022/01/11 09:22:00;;;;;;;14.70;7.37;;;;;;;;;;4986205;28;20915;-50
2022/01/11 09:24:30;;;;;;;10.40;6.60;;;;;;;;;;4975198;28;20995;-49
2022/01/11 09:26:59;;;;;;;13.80;6.83;;;;;;;;;;4985766;28;20477;-49
2022/01/11 09:29:26;;;;;;;9.47;6.00;;;;;;;;;;4991606;28;20401;-51
2022/01/11 09:31:53;;;;;;;12.33;6.97;;;;;;;;;;4977987;28;20413;-49
2022/01/11 09:34:19;;;;;;;7.83;5.60;;;;;;;;;;4973643;28;20439;-49
2022/01/11 09:36:45;;;;;;;12.23;7.47;;;;;;;;;;4988581;28;20803;-51
2022/01/11 09:39:11;;;;;;;10.30;7.03;;;;;;;;;;4992732;28;20413;-50
2022/01/11 09:41:37;;;;;;;11.40;7.30;;;;;;;;;;4981067;28;20418;-49
2022/01/11 09:44:05;;;;;;;12.13;7.70;;;;;;;;;;4993815;28;20474;-49
2022/01/11 09:46:31;;;;;;;14.70;8.87;;;;;;;;;;4988510;28;20411;-49
2022/01/11 09:48:57;;;;;;;13.13;7.80;;;;;;;;;;4993992;28;20408;-50
2022/01/11 09:51:23;;;;;;;14.43;7.73;;;;;;;;;;4978617;28;20420;-52
2022/01/11 09:53:49;;;;;;;12.10;8.60;;;;;;;;;;4982960;28;20911;-51
2022/01/11 09:56:17;;;;;;;9.47;6.87;;;;;;;;;;4983010;28;20525;-50
2022/01/11 09:58:44;;;;;;;11.43;7.67;;;;;;;;;;4992782;28;20417;-51
2022/01/11 10:01:10;;;;;;;11.50;6.40;;;;;;;;;;4993381;28;20446;-51
2022/01/11 10:03:55;;;;;;;8.80;6.37;;;;;;;;;;4989645;28;20434;-52
2022/01/11 10:06:22;;;;;;;9.10;7.03;;;;;;;;;;4982767;28;20506;-52
2022/01/11 10:08:48;;;;;;;5.90;4.83;;;;;;;;;;4980940;28;20787;-51
2022/01/11 10:11:14;;;;;;;7.47;5.97;;;;;;;;;;4976196;28;20484;-51
2022/01/11 10:13:41;;;;;;;9.10;5.70;;;;;;;;;;4976826;28;20482;-52
2022/01/11 10:16:18;;;;;;;8.10;6.23;;;;;;;;;;4992972;28;20899;-51
2022/01/11 10:18:44;;;;;;;10.90;7.67;;;;;;;;;;4993080;28;20425;-51
2022/01/11 10:21:28;;;;;;;10.07;6.87;;;;;;;;;;4992849;28;20834;-52
2022/01/11 10:23:54;;;;;;;16.50;7.30;;;;;;;;;;4973436;28;20504;-52
2022/01/11 10:26:39;;;;;;;7.87;6.10;;;;;;;;;;4976009;28;20417;-51
2022/01/11 10:29:22;;;;;;;7.47;4.60;;;;;;;;;;4979222;28;20413;-51
2022/01/11 10:31:48;;;;;;;8.03;5.27;;;;;;;;;;4979206;28;20947;-51
2022/01/11 10:34:14;;;;;;;10.73;4.67;;;;;;;;;;4985737;28;20460;-52
2022/01/11 10:36:43;;;;;;;7.50;5.43;;;;;;;;;;4983627;28;20792;-51
2022/01/11 10:39:29;;;;;;;9.10;5.93;;;;;;;;;;4979086;28;20436;-52
2022/01/11 10:41:55;;;;;;;8.23;5.60;;;;;;;;;;4979321;28;20412;-52
2022/01/11 10:44:40;;;;;;;5.70;5.20;;;;;;;;;;4985302;28;20552;-51
2022/01/11 10:47:06;;;;;;;6.50;4.63;;;;;;;;;;4986306;28;20471;-51
2022/01/11 10:49:35;;;;;;;14.77;6.47;;;;;;;;;;4992329;28;20412;-51
2022/01/11 10:52:16;;;;;;;10.50;5.53;;;;;;;;;;4988078;28;20410;-52
2022/01/11 10:54:42;;;;;;;6.77;5.67;;;;;;;;;;4972736;28;20424;-52
2022/01/11 10:57:42;;;;;;;6.60;5.50;;;;;;;;;;4972154;28;20864;-51
2022/01/11 11:00:11;;;;;;;6.10;5.50;;;;;;;;;;4940223;28;20421;-52
2022/01/11 11:02:37;;;;;;;11.07;5.40;;;;;;;;;;4973215;28;20816;-52
2022/01/11 11:05:12;;;;;;;12.90;6.30;;;;;;;;;;4972940;28;20423;-51
2022/01/11 11:07:38;;;;;;;6.23;5.30;;;;;;;;;;4973070;28;20522;-52
2022/01/11 11:10:04;;;;;;;9.43;5.80;;;;;;;;;;4973165;28;20430;-52
2022/01/11 11:12:30;;;;;;;8.47;5.67;;;;;;;;;;4973378;28;20459;-51
2022/01/11 11:14:57;;;;;;;8.00;6.60;;;;;;;;;;4972636;28;20427;-52
2022/01/11 11:17:25;;;;;;;6.83;5.63;;;;;;;;;;4973208;28;20396;-52
2022/01/11 11:20:08;;;;;;;6.87;5.43;;;;;;;;;;4973167;28;20431;-51
2022/01/11 11:22:34;;;;;;;8.10;5.30;;;;;;;;;;4973476;28;20945;-51
2022/01/11 11:25:01;;;;;;;10.80;5.13;;;;;;;;;;4972708;28;20438;-51
2022/01/11 11:27:30;;;;;;;10.43;5.27;;;;;;;;;;4972987;28;20382;-52
2022/01/11 11:29:57;;;;;;;7.90;4.70;;;;;;;;;;4973404;28;20796;-52
2022/01/11 11:32:23;;;;;;;10.80;5.97;;;;;;;;;;4972575;28;20410;-52
2022/01/11 11:34:49;;;;;;;10.63;6.07;;;;;;;;;;4976043;28;20468;-51
2022/01/11 11:37:20;;;;;;;9.20;5.00;;;;;;;;;;4984417;28;20878;-52
2022/01/11 11:39:47;;;;;;;7.60;5.43;;;;;;;;;;4992297;28;20412;-52
2022/01/11 11:42:17;;;;;;;8.67;6.40;;;;;;;;;;4992227;28;20386;-53
2022/01/11 11:44:44;;;;;;;9.50;5.40;;;;;;;;;;4992484;28;20433;-51
2022/01/11 11:47:10;;;;;;;10.60;4.93;;;;;;;;;;4982851;28;20391;-54
2022/01/11 11:49:55;;;;;;;7.37;5.57;;;;;;;;;;4983154;28;20780;-53
2022/01/11 11:52:21;;;;;;;7.37;4.90;;;;;;;;;;4990410;28;20423;-53
2022/01/11 11:54:55;;;;;;;11.10;5.67;;;;;;;;;;4981006;28;20773;-52
2022/01/11 11:57:22;;;;;;;11.77;5.10;;;;;;;;;;4973944;28;20418;-53
2022/01/11 11:59:53;;;;;;;7.10;5.10;;;;;;;;;;4973509;28;20917;-54
2022/01/11 12:02:32;;;;;;;13.60;4.90;;;;;;;;;;4978557;28;20455;-54
2022/01/11 12:04:58;;;;;;;9.53;4.97;;;;;;;;;;4981086;28;20486;-54
2022/01/11 12:07:32;;;;;;;14.30;5.10;;;;;;;;;;4988956;28;20403;-54
2022/01/11 12:09:58;;;;;;;6.80;5.00;;;;;;;;;;4990718;28;20411;-52
2022/01/11 12:12:40;;;;;;;7.43;4.10;;;;;;;;;;4982472;28;20479;-53
2022/01/11 12:15:31;;;;;;;19.03;4.40;;;;;;;;;;4983384;28;20698;-53
2022/01/11 12:18:00;;;;;;;9.87;4.87;;;;;;;;;;4993801;28;20413;-53
2022/01/11 12:20:46;;;;;;;7.67;4.30;;;;;;;;;;4997145;28;20447;-53
2022/01/11 12:23:22;;;;;;;4.80;3.43;;;;;;;;;;4995255;28;20455;-53
2022/01/11 12:25:52;;;;;;;8.90;3.70;;;;;;;;;;4995306;28;20979;-53
2022/01/11 12:28:22;;;;;;;8.93;3.40;;;;;;;;;;4995575;28;20400;-53
2022/01/11 12:30:49;;;;;;;6.90;3.93;;;;;;;;;;4995567;28;20412;-53
2022/01/11 12:33:17;;;;;;;7.03;3.40;;;;;;;;;;4995292;28;20391;-53
2022/01/11 12:35:55;;;;;;;5.47;3.70;;;;;;;;;;4995057;28;20939;-53
2022/01/11 12:38:21;;;;;;;7.33;3.90;;;;;;;;;;4995603;28;20928;-52
2022/01/11 12:40:47;;;;;;;9.83;3.17;;;;;;;;;;4993312;28;20474;-52
2022/01/11 12:43:19;;;;;;;6.33;3.50;;;;;;;;;;4994632;28;20462;-53
2022/01/11 12:46:05;;;;;;;4.80;3.40;;;;;;;;;;4994501;28;20425;-52
2022/01/11 12:48:47;;;;;;;5.17;4.10;;;;;;;;;;4995000;28;20409;-52
2022/01/11 12:51:25;;;;;;;3.53;3.07;;;;;;;;;;4995141;28;20429;-53
2022/01/11 12:54:08;;;;;;;6.80;4.10;;;;;;;;;;4996009;28;20470;-52
2022/01/11 12:56:35;;;;;;;4.30;2.80;;;;;;;;;;4995155;28;20410;-51
2022/01/11 12:59:02;;;;;;;7.07;3.63;;;;;;;;;;4994977;28;20406;-50
2022/01/11 13:01:28;;;;;;;5.43;3.03;;;;;;;;;;4994802;28;20399;-50
2022/01/11 13:03:56;;;;;;;6.80;3.40;;;;;;;;;;4994340;28;20479;-50
2022/01/11 13:06:22;;;;;;;5.03;3.13;;;;;;;;;;4994645;28;20429;-49
2022/01/11 13:08:53;;;;;;;4.10;3.50;;;;;;;;;;4994676;28;20417;-50
2022/01/11 13:11:20;;;;;;;3.60;2.70;;;;;;;;;;4994707;28;20758;-51
2022/01/11 13:13:54;;;;;;;4.77;3.40;;;;;;;;;;4994093;28;20412;-51
2022/01/11 13:16:21;;;;;;;6.00;3.93;;;;;;;;;;4993527;28;20439;-51
2022/01/11 13:18:47;;;;;;;9.70;3.40;;;;;;;;;;4994388;28;20885;-51
2022/01/11 13:21:12;;;;;;;7.10;3.50;;;;;;;;;;4994491;28;20415;-50
2022/01/11 13:23:56;;;;;;;7.13;3.53;;;;;;;;;;4993892;28;20546;-50
2022/01/11 13:26:22;;;;;;;5.17;3.67;;;;;;;;;;4994225;28;20503;-50
2022/01/11 13:28:49;;;;;;;4.90;3.30;;;;;;;;;;4994278;28;20486;-50
2022/01/11 13:31:28;;;;;;;4.00;3.37;;;;;;;;;;4994175;28;20400;-51
2022/01/11 13:34:00;;;;;;;3.33;3.13;;;;;;;;;;4993892;28;20515;-50
2022/01/11 13:36:38;;;;;;;7.17;3.03;;;;;;;;;;4994110;28;20400;-51
2022/01/11 13:39:04;;;;;;;8.53;3.43;;;;;;;;;;4989960;28;20435;-50
2022/01/11 13:41:32;;;;;;;8.43;3.80;;;;;;;;;;4993917;28;20405;-50
2022/01/11 13:43:59;;;;;;;3.83;3.07;;;;;;;;;;4992405;28;20571;-50
2022/01/11 13:46:27;;;;;;;4.23;3.30;;;;;;;;;;4992901;28;20795;-52
2022/01/11 13:48:53;;;;;;;4.47;3.40;;;;;;;;;;4994238;28;20806;-51
2022/01/11 13:51:27;;;;;;;4.57;3.00;;;;;;;;;;4993903;28;20408;-51
2022/01/11 13:54:04;;;;;;;6.83;3.00;;;;;;;;;;4993839;28;20845;-50
2022/01/11 13:56:31;;;;;;;14.60;3.70;;;;;;;;;;4993826;28;20401;-51
2022/01/11 13:58:57;;;;;;;5.70;3.70;;;;;;;;;;4994189;28;20417;-50
2022/01/11 14:01:25;;;;;;;7.80;3.17;;;;;;;;;;4993854;28;20414;-51
2022/01/11 14:04:03;;;;;;;3.63;2.90;;;;;;;;;;4993227;28;20462;-51
2022/01/11 14:06:38;;;;;;;8.67;2.70;;;;;;;;;;4993630;28;20439;-51
2022/01/11 14:09:04;;;;;;;3.97;2.90;;;;;;;;;;4992772;28;20404;-61
2022/01/11 14:11:33;;;;;;;4.07;2.50;;;;;;;;;;4993180;28;20406;-50
2022/01/11 14:14:00;;;;;;;9.93;3.50;;;;;;;;;;4992879;28;20903;-51
2022/01/11 14:16:26;;;;;;;5.73;2.70;;;;;;;;;;4992734;28;20465;-50
2022/01/11 14:19:05;;;;;;;6.53;2.90;;;;;;;;;;4993018;28;20407;-51
2022/01/11 14:21:32;;;;;;;2.93;2.40;;;;;;;;;;4992618;28;20461;-50
2022/01/11 14:23:59;;;;;;;7.33;2.87;;;;;;;;;;4992512;28;20497;-52
2022/01/11 14:26:35;;;;;;;8.53;2.63;;;;;;;;;;4992719;28;20458;-51
2022/01/11 14:29:02;;;;;;;8.20;3.47;;;;;;;;;;4992773;28;20897;-50
2022/01/11 14:31:31;;;;;;;3.17;2.67;;;;;;;;;;4986309;28;20421;-51
2022/01/11 14:34:07;;;;;;;10.50;2.90;;;;;;;;;;4992115;28;20937;-52
2022/01/11 14:36:33;;;;;;;5.80;2.47;;;;;;;;;;4989398;28;20826;-51
2022/01/11 14:39:06;;;;;;;3.23;2.50;;;;;;;;;;4989930;28;20424;-51
2022/01/11 14:41:46;;;;;;;7.77;3.03;;;;;;;;;;4992795;28;20406;-51